Time;durP1;ratioP1;P1;durP2;ratioP2;P2;SDS_P1;SDS_P2;PMS_P1;PMS_P2;Temp;Humidity;BMP_temperature;BMP_pressure;BME280_temperature;BME280_humidity;BME280_pressure;Samples;Min_cycle;Max_cycle;Signal;HPM_P1;HPM_P2
2021/11/07 00:00:40;;;;;;;16.70;3.47;;;;;;;12.70;100.00;101443.59;5031125;28;20056;-33
2021/11/07 00:03:13;;;;;;;16.98;3.28;;;;;;;12.71;100.00;101442.47;5031333;28;20056;-32
2021/11/07 00:05:44;;;;;;;20.40;3.60;;;;;;;12.74;100.00;101441.03;5031625;28;20055;-32
2021/11/07 00:10:57;;;;;;;19.40;3.75;;;;;;;12.76;100.00;101435.97;5029563;28;20136;-31
2021/11/07 00:13:27;;;;;;;19.48;3.85;;;;;;;12.79;100.00;101445.75;5031435;28;20053;-33
2021/11/07 00:16:03;;;;;;;19.85;3.58;;;;;;;12.81;100.00;101449.06;5030553;28;20046;-31
2021/11/07 00:18:35;;;;;;;14.70;3.60;;;;;;;12.80;100.00;101453.00;5031058;28;20168;-31
2021/11/07 00:21:07;;;;;;;;;;;;;;;12.72;100.00;101463.75;5031006;28;20053;-31
2021/11/07 00:23:54;;;;;;;15.60;3.42;;;;;;;12.70;100.00;101453.97;5031225;28;19928;-32
2021/11/07 00:26:26;;;;;;;20.48;3.67;;;;;;;12.66;100.00;101453.72;5031095;28;20056;-32
2021/11/07 00:28:59;;;;;;;20.67;3.65;;;;;;;12.62;100.00;101444.25;5030584;28;20053;-31
2021/11/07 00:31:32;;;;;;;17.13;3.58;;;;;;;12.60;100.00;101466.13;5030905;28;20156;-32
2021/11/07 00:34:39;;;;;;;20.02;3.72;;;;;;;12.55;100.00;101446.59;5030813;28;20091;-32
2021/11/07 00:37:08;;;;;;;17.42;3.72;;;;;;;12.51;100.00;101445.53;5031038;28;20053;-34
2021/11/07 00:39:42;;;;;;;10.13;2.88;;;;;;;12.51;100.00;101451.13;5030829;28;20077;-33
2021/11/07 00:42:15;;;;;;;18.33;3.80;;;;;;;12.52;100.00;101444.38;5030160;28;20486;-32
2021/11/07 00:44:53;;;;;;;15.60;3.10;;;;;;;12.53;100.00;101450.81;5024915;28;20075;-34
2021/11/07 00:47:33;;;;;;;13.10;3.05;;;;;;;12.51;100.00;101448.31;5030888;28;20049;-32
2021/11/07 00:50:04;;;;;;;14.70;3.50;;;;;;;12.50;100.00;101438.25;5030435;28;20069;-31
2021/11/07 00:52:36;;;;;;;15.70;3.22;;;;;;;12.53;100.00;101439.63;5030670;28;20042;-33
2021/11/07 00:55:09;;;;;;;12.55;3.13;;;;;;;12.52;99.55;101443.56;5030899;28;20057;-33
2021/11/07 00:57:49;;;;;;;18.08;3.90;;;;;;;12.54;99.32;101432.91;5030418;28;20050;-32
2021/11/07 01:00:25;;;;;;;19.90;3.40;;;;;;;12.55;99.67;101429.81;5024963;28;20076;-33
2021/11/07 01:02:58;;;;;;;22.77;4.63;;;;;;;12.55;99.76;101431.78;5029779;28;20460;-30
2021/11/07 01:05:30;;;;;;;21.00;4.45;;;;;;;12.52;98.90;101427.59;5030750;28;20041;-32
2021/11/07 01:07:58;;;;;;;16.30;3.63;;;;;;;12.46;97.55;101430.75;5030947;28;20063;-32
2021/11/07 01:10:27;;;;;;;13.85;3.45;;;;;;;12.37;94.52;101427.78;5029981;28;20041;-32
2021/11/07 01:12:55;;;;;;;13.43;3.47;;;;;;;12.28;93.20;101430.38;5030743;28;20051;-30
2021/11/07 01:15:26;;;;;;;12.63;2.70;;;;;;;12.23;92.09;101430.44;5030335;28;20046;-32
2021/11/07 01:17:58;;;;;;;20.13;3.75;;;;;;;12.17;91.43;101414.03;5030384;28;20140;-36
2021/11/07 01:20:28;;;;;;;18.67;3.90;;;;;;;12.17;91.68;101419.63;5030742;28;20063;-31
2021/11/07 01:23:00;;;;;;;25.95;5.03;;;;;;;12.16;92.11;101421.56;5030962;28;20049;-32
2021/11/07 01:25:32;;;;;;;17.23;3.50;;;;;;;12.13;91.23;101424.13;5029594;28;20056;-32
2021/11/07 01:28:01;;;;;;;17.13;3.55;;;;;;;12.06;91.01;101422.50;5031350;28;20391;-32
2021/11/07 01:30:32;;;;;;;18.40;3.72;;;;;;;12.04;90.67;101421.97;5029970;28;20386;-32
2021/11/07 01:33:03;;;;;;;15.82;3.25;;;;;;;12.01;90.19;101424.50;5030563;28;20050;-33
2021/11/07 01:35:38;;;;;;;19.65;3.78;;;;;;;11.99;90.39;101422.00;5030448;28;20037;-33
2021/11/07 01:38:14;;;;;;;18.17;3.78;;;;;;;11.97;90.93;101415.91;5029316;28;20418;-31
2021/11/07 01:40:46;;;;;;;17.20;3.00;;;;;;;11.93;89.77;101423.22;5033960;28;20112;-35
2021/11/07 01:43:15;;;;;;;18.40;3.30;;;;;;;11.87;88.49;101418.78;5033999;28;20052;-32
2021/11/07 01:45:48;;;;;;;14.73;2.92;;;;;;;11.87;88.47;101415.16;5033139;28;20057;-32
2021/11/07 01:48:18;;;;;;;17.33;3.85;;;;;;;11.85;88.02;101426.63;5023537;28;20050;-32
2021/11/07 01:50:53;;;;;;;22.17;4.35;;;;;;;11.85;88.91;101426.63;5033347;28;20045;-31
2021/11/07 01:53:26;;;;;;;18.63;3.50;;;;;;;11.81;88.58;101431.13;5033632;28;20049;-32
2021/11/07 01:55:56;;;;;;;19.95;3.42;;;;;;;11.79;88.22;101425.00;5033219;28;20475;-32
2021/11/07 01:58:25;;;;;;;15.55;3.13;;;;;;;11.78;87.29;101425.31;5033933;28;20072;-32
2021/11/07 02:00:55;;;;;;;16.13;3.50;;;;;;;11.79;87.22;101433.38;5032764;28;20523;-32
2021/11/07 02:03:24;;;;;;;13.95;2.83;;;;;;;11.79;87.17;101435.38;5032345;28;20080;-35
2021/11/07 02:05:56;;;;;;;15.23;3.35;;;;;;;11.78;87.23;101423.34;5033716;28;20091;-32
2021/11/07 02:08:24;;;;;;;21.77;3.70;;;;;;;11.76;87.74;101408.84;5033252;28;20051;-32
2021/11/07 02:10:54;;;;;;;17.80;3.35;;;;;;;11.74;87.52;101413.84;5033236;28;20049;-33
2021/11/07 02:13:22;;;;;;;15.48;2.90;;;;;;;11.70;87.77;101408.00;5032783;28;20045;-32
2021/11/07 02:15:51;;;;;;;19.85;3.28;;;;;;;11.68;87.78;101409.41;5033069;28;20128;-34
2021/11/07 02:18:20;;;;;;;19.63;4.25;;;;;;;11.67;88.45;101404.97;5033409;28;20107;-34
2021/11/07 02:20:50;;;;;;;23.90;4.03;;;;;;;11.66;89.29;101400.50;5032768;28;20060;-34
2021/11/07 02:23:20;;;;;;;19.20;3.92;;;;;;;11.64;89.09;101398.00;5033222;28;20051;-31
2021/11/07 02:25:52;;;;;;;18.70;3.28;;;;;;;11.61;89.15;101400.53;5020329;28;20037;-33
2021/11/07 02:28:25;;;;;;;14.00;3.28;;;;;;;11.56;87.31;101392.22;5032632;28;20060;-34
2021/11/07 02:30:53;;;;;;;19.02;3.75;;;;;;;11.54;87.40;101391.66;5032991;28;20052;-37
2021/11/07 02:33:21;;;;;;;17.98;3.55;;;;;;;11.52;87.26;101394.75;5033201;28;20057;-33
2021/11/07 02:35:50;;;;;;;16.00;3.53;;;;;;;11.52;87.25;101391.13;5032899;28;20046;-33
2021/11/07 02:38:18;;;;;;;15.48;3.50;;;;;;;11.53;86.70;101373.22;5032882;28;20061;-32
2021/11/07 02:40:46;;;;;;;21.15;3.97;;;;;;;11.52;87.40;101385.53;5032694;28;20136;-34
2021/11/07 02:43:14;;;;;;;17.90;3.25;;;;;;;11.51;87.38;101383.88;5032062;28;20487;-31
2021/11/07 02:45:42;;;;;;;13.82;3.30;;;;;;;11.50;86.54;101383.03;5032954;28;20072;-32
2021/11/07 02:48:09;;;;;;;13.60;2.90;;;;;;;11.50;85.84;101377.44;5031598;28;20132;-33
2021/11/07 02:50:37;;;;;;;20.33;3.95;;;;;;;11.51;85.72;101386.66;5030171;28;20203;-33
2021/11/07 02:53:06;;;;;;;16.17;3.20;;;;;;;11.53;86.18;101384.41;5032286;28;20045;-32
2021/11/07 02:55:34;;;;;;;18.20;3.83;;;;;;;11.55;86.52;101370.97;5032172;28;20049;-31
2021/11/07 02:58:02;;;;;;;24.75;3.88;;;;;;;11.58;87.42;101364.81;5032569;28;20049;-33
2021/11/07 03:00:32;;;;;;;19.90;4.05;;;;;;;11.62;88.08;101371.44;5032436;28;20053;-31
2021/11/07 03:03:00;;;;;;;16.58;3.85;;;;;;;11.62;87.95;101371.44;5031879;28;20037;-32
2021/11/07 03:05:29;;;;;;;23.08;4.05;;;;;;;11.60;88.08;101366.16;5032287;28;20050;-32
2021/11/07 03:07:58;;;;;;;21.67;4.00;;;;;;;11.60;87.71;101363.34;5032182;28;20048;-36
2021/11/07 03:10:30;;;;;;;18.15;4.28;;;;;;;11.59;87.73;101361.69;5030860;28;20055;-34
2021/11/07 03:13:08;;;;;;;17.45;3.45;;;;;;;11.57;87.25;101363.97;5032627;28;20047;-34
2021/11/07 03:15:39;;;;;;;16.02;3.60;;;;;;;11.53;86.99;101367.63;5031385;28;20049;-34
2021/11/07 03:18:08;;;;;;;22.40;4.30;;;;;;;11.51;86.85;101370.72;5031699;28;20060;-32
2021/11/07 03:20:36;;;;;;;17.33;3.80;;;;;;;11.49;86.76;101367.38;5032481;28;20072;-34
2021/11/07 03:23:05;;;;;;;19.50;3.05;;;;;;;11.45;85.76;101365.47;5032168;28;20048;-30
2021/11/07 03:25:45;;;;;;;19.10;4.00;;;;;;;11.40;85.84;101381.13;5031541;28;20410;-30
2021/11/07 03:28:12;;;;;;;19.48;3.72;;;;;;;11.37;85.38;101378.97;5031998;28;20052;-33
2021/11/07 03:30:46;;;;;;;19.30;3.35;;;;;;;11.35;85.13;101378.41;5031328;28;20076;-31
2021/11/07 03:33:22;;;;;;;17.77;3.25;;;;;;;11.30;84.32;101372.03;5031926;28;20046;-32
2021/11/07 03:35:49;;;;;;;18.55;3.33;;;;;;;11.28;83.78;101363.09;5031662;28;20057;-34
2021/11/07 03:38:17;;;;;;;16.00;3.72;;;;;;;11.28;84.06;101377.91;5030992;28;20525;-31
2021/11/07 03:40:47;;;;;;;18.15;3.55;;;;;;;11.27;84.51;101376.22;5031690;28;20049;-33
2021/11/07 03:43:14;;;;;;;16.90;3.63;;;;;;;11.27;84.23;101372.59;5031515;28;20163;-35
2021/11/07 03:45:42;;;;;;;17.23;3.58;;;;;;;11.29;84.86;101365.59;5031004;28;20403;-34
2021/11/07 03:48:11;;;;;;;22.23;4.43;;;;;;;11.31;84.56;101366.16;5031929;28;20502;-31
2021/11/07 03:50:43;;;;;;;19.13;3.28;;;;;;;11.30;84.19;101350.50;5031492;28;20521;-34
2021/11/07 03:53:11;;;;;;;;;;;;;;;11.26;83.47;101362.53;5031518;28;20053;-31
2021/11/07 03:55:39;;;;;;;13.20;2.88;;;;;;;11.21;83.14;101365.38;5031216;28;19925;-32
2021/11/07 03:58:08;;;;;;;22.63;3.88;;;;;;;11.23;82.51;101379.88;5031785;28;20054;-32
2021/11/07 04:00:36;;;;;;;18.95;3.83;;;;;;;11.23;82.17;101369.53;5029852;28;20107;-35
2021/11/07 04:03:05;;;;;;;19.80;3.63;;;;;;;11.26;83.17;101368.13;5031547;28;20107;-31
2021/11/07 04:05:34;;;;;;;20.63;3.92;;;;;;;11.31;84.48;101377.31;5030897;28;20041;-31
2021/11/07 04:08:02;;;;;;;23.73;3.90;;;;;;;11.31;84.45;101382.91;5030895;28;20522;-33
2021/11/07 04:10:30;;;;;;;13.55;3.15;;;;;;;11.32;84.54;101367.81;5030789;28;20503;-34
2021/11/07 04:12:58;;;;;;;15.65;3.38;;;;;;;11.33;84.15;101374.22;5029629;28;20403;-31
2021/11/07 04:15:27;;;;;;;16.02;3.05;;;;;;;11.29;83.24;101373.97;5030950;28;20111;-34
2021/11/07 04:17:58;;;;;;;14.98;3.25;;;;;;;11.26;82.45;101379.31;5031529;28;20045;-32
2021/11/07 04:20:26;;;;;;;10.93;2.25;;;;;;;11.23;82.15;101363.97;5030323;28;20130;-32
2021/11/07 04:22:54;;;;;;;19.75;2.85;;;;;;;11.20;82.00;101366.50;5030971;28;20045;-30
2021/11/07 04:25:23;;;;;;;14.60;2.75;;;;;;;11.20;81.60;101386.06;5031197;28;20048;-31
2021/11/07 04:27:50;;;;;;;14.50;3.72;;;;;;;11.17;82.01;101381.91;5030245;28;20053;-32
2021/11/07 04:30:18;;;;;;;18.42;3.35;;;;;;;11.18;82.37;101383.56;5030997;28;20398;-34
2021/11/07 04:32:47;;;;;;;26.17;3.35;;;;;;;11.19;82.02;101373.25;5030995;28;20048;-34
2021/11/07 04:35:15;;;;;;;19.70;4.10;;;;;;;11.21;82.95;101376.53;5030273;28;20053;-34
2021/11/07 04:37:44;;;;;;;19.92;3.15;;;;;;;11.19;82.71;101385.22;5030875;28;20092;-34
2021/11/07 04:40:14;;;;;;;17.45;2.67;;;;;;;11.21;82.03;101373.75;5030916;28;20048;-35
2021/11/07 04:42:42;;;;;;;18.73;3.53;;;;;;;11.18;81.40;101389.16;5030670;28;20053;-32
2021/11/07 04:45:11;;;;;;;17.20;3.17;;;;;;;11.18;81.83;101386.38;5030883;28;20054;-31
2021/11/07 04:47:39;;;;;;;16.27;3.25;;;;;;;11.17;81.47;101387.50;5030769;28;20046;-32
2021/11/07 04:50:10;;;;;;;19.00;3.92;;;;;;;11.19;81.75;101384.41;5030219;28;20061;-33
2021/11/07 04:52:38;;;;;;;18.02;3.63;;;;;;;11.19;81.64;101379.63;5031039;28;20041;-33
2021/11/07 04:55:08;;;;;;;18.13;3.08;;;;;;;11.19;81.63;101368.44;5030484;28;20072;-32
2021/11/07 04:57:41;;;;;;;21.92;3.28;;;;;;;11.19;81.71;101373.25;5026961;28;20041;-33
2021/11/07 05:00:11;;;;;;;19.80;3.70;;;;;;;11.20;82.58;101369.28;5030995;28;20045;-34
2021/11/07 05:02:39;;;;;;;18.48;3.65;;;;;;;11.20;81.53;101369.28;5029353;28;20037;-32
2021/11/07 05:05:09;;;;;;;21.33;3.38;;;;;;;11.19;82.25;101367.66;5030955;28;20050;-32
2021/11/07 05:07:37;;;;;;;22.42;4.28;;;;;;;11.19;82.53;101376.84;5030693;28;20056;-35
2021/11/07 05:10:05;;;;;;;20.85;3.67;;;;;;;11.19;81.29;101368.44;5030459;28;20045;-34
2021/11/07 05:12:33;;;;;;;18.20;3.42;;;;;;;11.17;81.46;101370.72;5029309;28;20047;-32
2021/11/07 05:15:01;;;;;;;18.45;3.60;;;;;;;11.19;81.83;101370.44;5034076;28;20045;-31
2021/11/07 05:17:29;;;;;;;18.08;3.45;;;;;;;11.19;82.26;101370.44;5033658;28;20056;-33
2021/11/07 05:19:57;;;;;;;21.40;3.40;;;;;;;11.16;82.09;101369.06;5034597;28;20056;-31
2021/11/07 05:22:26;;;;;;;19.30;3.20;;;;;;;11.15;81.18;101363.75;5034337;28;20049;-30
2021/11/07 05:24:54;;;;;;;21.65;3.53;;;;;;;11.11;80.75;101362.66;5032860;28;20040;-32
2021/11/07 05:27:22;;;;;;;20.58;3.30;;;;;;;11.09;81.30;101371.34;5034062;28;20061;-33
2021/11/07 05:29:50;;;;;;;23.95;4.32;;;;;;;11.14;82.64;101379.69;5034109;28;20045;-31
2021/11/07 05:32:18;;;;;;;23.00;3.42;;;;;;;11.15;83.34;101366.56;5033826;28;20049;-32
2021/11/07 05:34:47;;;;;;;22.40;3.08;;;;;;;11.13;84.21;101374.41;5033949;28;20061;-32
2021/11/07 05:37:14;;;;;;;20.80;3.63;;;;;;;11.11;83.71;101379.44;5033412;28;20144;-31
2021/11/07 05:39:44;;;;;;;16.63;3.13;;;;;;;11.05;82.29;101392.59;5034568;28;20403;-32
2021/11/07 05:42:11;;;;;;;17.20;2.88;;;;;;;11.01;81.28;101385.91;5033703;28;20061;-31
2021/11/07 05:44:40;;;;;;;21.55;3.78;;;;;;;10.99;81.19;101385.38;5033266;28;20414;-32
2021/11/07 05:47:12;;;;;;;17.23;3.20;;;;;;;10.95;80.79;101387.09;5033929;28;20037;-31
2021/11/07 05:49:40;;;;;;;16.95;3.55;;;;;;;10.92;80.93;101368.13;5033435;28;20045;-34
2021/11/07 05:52:08;;;;;;;21.63;3.03;;;;;;;10.86;79.32;101383.22;5033269;28;20056;-30
2021/11/07 05:54:36;;;;;;;22.73;3.72;;;;;;;10.87;80.16;101385.72;5033256;28;20056;-31
2021/11/07 05:57:06;;;;;;;15.85;3.10;;;;;;;10.87;80.24;101396.06;5033863;28;20049;-32
2021/11/07 05:59:34;;;;;;;13.68;2.47;;;;;;;10.81;81.48;101389.66;5032428;28;20045;-34
2021/11/07 06:02:02;;;;;;;18.23;2.85;;;;;;;10.74;82.38;101375.19;5033870;28;20445;-33
2021/11/07 06:04:30;;;;;;;17.10;2.60;;;;;;;10.67;82.70;101386.66;5033097;28;20053;-34
2021/11/07 06:06:59;;;;;;;17.58;3.15;;;;;;;10.65;83.12;101385.28;5032974;28;20080;-30
2021/11/07 06:09:27;;;;;;;15.93;3.05;;;;;;;10.64;83.64;101376.06;5033239;28;20048;-31
2021/11/07 06:11:55;;;;;;;18.67;3.10;;;;;;;10.65;83.65;101366.59;5033622;28;20048;-31
2021/11/07 06:14:24;;;;;;;23.30;3.30;;;;;;;10.68;83.82;101374.38;5031306;28;20050;-31
2021/11/07 06:16:52;;;;;;;16.83;2.40;;;;;;;10.69;83.65;101367.69;5033468;28;20590;-31
2021/11/07 06:19:20;;;;;;;15.10;3.03;;;;;;;10.72;83.56;101379.41;5032231;28;20061;-35
2021/11/07 06:21:52;;;;;;;19.77;3.47;;;;;;;10.72;83.63;101379.41;5032829;28;20507;-31
2021/11/07 06:24:24;;;;;;;20.48;2.88;;;;;;;10.74;83.53;101378.00;5032718;28;20052;-32
2021/11/07 06:26:53;;;;;;;18.92;2.50;;;;;;;10.76;82.95;101381.34;5032502;28;20100;-33
2021/11/07 06:29:21;;;;;;;19.58;2.72;;;;;;;10.79;82.99;101391.91;5032928;28;20049;-31
2021/11/07 06:31:52;;;;;;;21.08;3.15;;;;;;;10.82;82.64;101390.50;5030266;28;20406;-31
2021/11/07 06:34:21;;;;;;;19.20;2.70;;;;;;;10.86;83.38;101397.19;5031286;28;20042;-31
2021/11/07 06:36:50;;;;;;;16.50;2.55;;;;;;;10.80;82.71;101399.16;5031850;28;20494;-31
2021/11/07 06:39:19;;;;;;;14.93;2.35;;;;;;;10.70;82.44;101394.47;5031477;28;20065;-31
2021/11/07 06:41:47;;;;;;;10.80;2.17;;;;;;;10.60;82.54;101400.09;5031286;28;20072;-31
2021/11/07 06:44:16;;;;;;;15.65;2.22;;;;;;;10.56;82.67;101398.19;5031281;28;20045;-31
2021/11/07 06:46:44;;;;;;;14.07;2.35;;;;;;;10.55;83.04;101402.94;5031295;28;20052;-31
2021/11/07 06:49:14;;;;;;;20.55;2.97;;;;;;;10.55;84.36;101400.13;5029622;28;20045;-32
2021/11/07 06:51:44;;;;;;;19.95;3.42;;;;;;;10.55;83.75;101397.34;5031023;28;20100;-39
2021/11/07 06:54:12;;;;;;;13.40;2.70;;;;;;;10.59;82.13;101381.69;5030710;28;20045;-37
2021/11/07 06:56:41;;;;;;;17.60;3.03;;;;;;;10.63;82.13;101393.94;5029805;28;20056;-31
2021/11/07 06:59:09;;;;;;;19.67;3.45;;;;;;;10.65;82.71;101393.66;5030071;28;20041;-32
2021/11/07 07:01:38;;;;;;;19.17;2.83;;;;;;;10.73;83.19;101392.22;5028603;28;20055;-33
2021/11/07 07:04:06;;;;;;;16.40;2.67;;;;;;;10.74;82.50;101410.66;5031748;28;20049;-31
2021/11/07 07:06:36;;;;;;;19.98;3.20;;;;;;;10.75;81.30;101412.31;5030541;28;20033;-32
2021/11/07 07:09:06;;;;;;;16.27;3.15;;;;;;;10.75;80.83;101398.38;5030977;28;20061;-32
2021/11/07 07:11:36;;;;;;;25.05;3.33;;;;;;;10.75;80.89;101387.19;5030739;28;20518;-31
2021/11/07 07:14:06;;;;;;;16.20;2.90;;;;;;;10.74;80.12;101394.75;5031602;28;20057;-31
2021/11/07 07:16:40;;;;;;;17.25;2.55;;;;;;;10.74;79.56;101393.91;5030396;28;20045;-32
2021/11/07 07:22:22;;;;;;;22.60;3.58;;;;;;;10.80;80.64;101409.47;4969276;28;20508;-33
2021/11/07 07:25:15;;;;;;;21.00;3.58;;;;;;;10.85;80.04;101417.84;5023166;28;20049;-33
2021/11/07 07:30:38;;;;;;;17.02;3.05;;;;;;;10.88;79.74;101406.09;5026374;28;20052;-32
2021/11/07 07:33:25;;;;;;;14.65;2.83;;;;;;;10.95;79.44;101412.22;5031007;28;20045;-32
2021/11/07 07:35:56;;;;;;;18.20;3.10;;;;;;;11.00;79.87;101409.38;5030026;28;20046;-33
2021/11/07 07:38:25;;;;;;;21.23;3.05;;;;;;;11.02;81.22;101426.66;5030132;28;20058;-31
2021/11/07 07:40:54;;;;;;;14.43;2.35;;;;;;;10.95;81.26;101412.22;5030349;28;20045;-30
2021/11/07 07:43:22;;;;;;;12.52;2.10;;;;;;;10.78;79.69;101414.53;5030484;28;20083;-31
2021/11/07 07:45:52;;;;;;;14.50;1.80;;;;;;;10.68;80.13;101418.22;5029713;28;20056;-32
2021/11/07 07:48:21;;;;;;;10.90;1.90;;;;;;;10.63;80.89;101418.22;5029202;28;20084;-31
2021/11/07 07:50:49;;;;;;;13.32;2.92;;;;;;;10.62;80.95;101417.38;5030019;28;20053;-33
2021/11/07 07:53:17;;;;;;;11.60;2.15;;;;;;;10.64;81.48;101405.94;5030055;28;20044;-33
2021/11/07 07:55:47;;;;;;;16.70;3.05;;;;;;;10.68;82.04;101423.78;5030307;28;20049;-31
2021/11/07 07:58:14;;;;;;;16.13;2.75;;;;;;;10.70;82.44;101432.72;5029743;28;20041;-32
2021/11/07 08:00:42;;;;;;;20.80;2.75;;;;;;;10.72;84.21;101446.38;5030509;28;20046;-31
2021/11/07 08:03:10;;;;;;;20.80;2.90;;;;;;;10.63;85.99;101452.56;5030114;28;20072;-31
2021/11/07 08:05:37;;;;;;;16.90;2.63;;;;;;;10.55;86.67;101457.91;5029637;28;20068;-32
2021/11/07 08:08:05;;;;;;;13.90;2.47;;;;;;;10.44;87.12;101450.66;5029741;28;20124;-33
2021/11/07 08:10:33;;;;;;;10.25;2.03;;;;;;;10.29;86.20;101459.94;5026996;28;20041;-33
2021/11/07 08:13:02;;;;;;;13.23;2.38;;;;;;;10.17;86.83;101437.06;5029583;28;20099;-33
2021/11/07 08:15:30;;;;;;;15.18;2.10;;;;;;;10.11;87.25;101446.53;5030114;28;20116;-31
2021/11/07 08:17:58;;;;;;;12.85;2.42;;;;;;;10.08;87.99;101442.38;5029622;28;20052;-33
2021/11/07 08:20:26;;;;;;;17.40;2.72;;;;;;;10.12;88.79;101437.06;5029373;28;20056;-31
2021/11/07 08:22:54;;;;;;;13.55;2.20;;;;;;;10.19;89.51;101444.03;5029991;28;20561;-34
2021/11/07 08:25:24;;;;;;;20.45;3.10;;;;;;;10.28;90.38;101436.78;5030265;28;20053;-31
2021/11/07 08:27:57;;;;;;;24.75;3.75;;;;;;;10.41;90.42;101438.13;5016531;28;20048;-32
2021/11/07 08:30:27;;;;;;;19.30;3.10;;;;;;;10.52;89.59;101436.97;5030190;28;20042;-33
2021/11/07 08:32:55;;;;;;;13.32;2.45;;;;;;;10.58;87.84;101460.13;5028413;28;20127;-33
2021/11/07 08:35:23;;;;;;;13.73;2.55;;;;;;;10.58;88.55;101455.38;5029612;28;20449;-32
2021/11/07 08:37:55;;;;;;;9.60;2.05;;;;;;;10.51;87.39;101451.22;5029463;28;20457;-30
2021/11/07 08:40:28;;;;;;;14.93;2.28;;;;;;;10.42;87.43;101437.00;5029401;28;20053;-36
2021/11/07 08:43:02;;;;;;;16.40;3.35;;;;;;;10.39;87.76;101468.28;5029947;28;20053;-34
2021/11/07 09:04:59;;;;;;;19.15;3.20;;;;;;;10.82;86.38;101447.16;5032772;28;20067;-32
2021/11/07 09:07:38;;;;;;;21.10;2.75;;;;;;;11.00;85.44;101445.66;5029766;28;20056;-33
2021/11/07 09:10:07;;;;;;;18.73;2.75;;;;;;;11.12;84.76;101437.78;5034070;28;20049;-33
2021/11/07 09:12:36;;;;;;;23.05;3.20;;;;;;;11.33;84.37;101441.28;5030732;28;20045;-38
2021/11/07 09:15:04;;;;;;;20.00;3.25;;;;;;;11.48;82.82;101437.53;5034562;28;20053;-35
2021/11/07 09:17:33;;;;;;;15.55;2.83;;;;;;;11.51;81.92;101442.56;5034088;28;20049;-32
2021/11/07 09:20:06;;;;;;;16.33;2.95;;;;;;;11.48;81.36;101438.38;5034380;28;20054;-32
2021/11/07 09:22:39;;;;;;;13.13;2.40;;;;;;;11.44;83.90;101437.28;5033728;28;20107;-32
2021/11/07 09:25:10;;;;;;;17.10;2.92;;;;;;;11.32;84.46;101443.25;5034286;28;20052;-31
2021/11/07 09:27:42;;;;;;;20.17;3.25;;;;;;;11.23;85.34;101436.59;5034009;28;20038;-33
2021/11/07 09:30:14;;;;;;;17.98;2.78;;;;;;;11.38;86.83;101439.31;5033688;28;20506;-32
2021/11/07 09:32:50;;;;;;;16.83;2.80;;;;;;;11.49;86.38;101444.81;5033985;28;20499;-33
2021/11/07 09:38:04;;;;;;;20.23;3.15;;;;;;;11.34;86.18;101435.41;5030042;28;20057;-31
2021/11/07 09:40:36;;;;;;;16.47;3.40;;;;;;;11.30;85.95;101439.06;5034128;28;20487;-33
2021/11/07 09:43:37;;;;;;;20.88;3.60;;;;;;;11.45;86.38;101426.94;5033858;28;20055;-34
2021/11/07 09:46:13;;;;;;;20.90;3.45;;;;;;;11.66;85.11;101442.44;5034323;28;20518;-31
2021/11/07 09:48:45;;;;;;;21.35;3.30;;;;;;;11.94;84.98;101440.81;5033799;28;20046;-32
2021/11/07 09:51:18;;;;;;;18.38;3.03;;;;;;;12.24;83.82;101453.66;5033348;28;20063;-34
2021/11/07 09:53:50;;;;;;;16.00;3.33;;;;;;;12.61;82.50;101452.94;5032260;28;20053;-36
2021/11/07 09:56:19;;;;;;;18.45;2.85;;;;;;;12.89;80.30;101440.84;5033703;28;20057;-33
2021/11/07 09:58:50;;;;;;;18.27;3.40;;;;;;;13.09;78.86;101446.16;5032432;28;20045;-33
2021/11/07 10:01:18;;;;;;;19.52;3.45;;;;;;;13.26;78.04;101437.25;5033797;28;20045;-33
2021/11/07 10:03:51;;;;;;;15.05;3.15;;;;;;;13.40;77.53;101451.34;5033196;28;20046;-32
2021/11/07 10:06:28;;;;;;;19.38;2.63;;;;;;;13.47;75.44;101439.75;5032871;28;20045;-32
2021/11/07 10:08:57;;;;;;;21.23;3.38;;;;;;;13.27;73.87;101441.72;5033140;28;20110;-32
2021/11/07 10:11:30;;;;;;;17.73;3.55;;;;;;;13.08;74.29;101452.06;5032866;28;20056;-32
2021/11/07 10:14:02;;;;;;;18.75;3.65;;;;;;;13.10;74.54;101441.38;5033143;28;20140;-32
2021/11/07 10:16:42;;;;;;;15.63;3.17;;;;;;;13.15;74.23;101446.97;5020610;28;20548;-33
2021/11/07 10:19:17;;;;;;;16.92;3.08;;;;;;;13.08;74.23;101446.47;5032315;28;20593;-35
2021/11/07 10:21:48;;;;;;;22.90;3.58;;;;;;;13.13;74.69;101449.19;5021326;28;20051;-35
2021/11/07 10:24:21;;;;;;;20.25;3.25;;;;;;;13.24;73.67;101449.91;5033137;28;20045;-34
2021/11/07 10:26:54;;;;;;;23.40;3.63;;;;;;;13.23;72.96;101454.66;5019823;28;20380;-37
2021/11/07 10:29:29;;;;;;;15.70;3.08;;;;;;;13.18;72.90;101449.16;5032802;28;20050;-35
2021/11/07 10:32:02;;;;;;;22.55;3.38;;;;;;;13.05;72.88;101447.06;5032847;28;20124;-34
2021/11/07 10:37:31;;;;;;;20.90;3.20;;;;;;;12.73;74.12;101459.81;5020765;28;20515;-32
2021/11/07 10:46:08;;;;;;;19.40;3.92;;;;;;;12.90;74.93;101462.13;5027120;28;20052;-35
2021/11/07 10:54:14;;;;;;;19.05;3.53;;;;;;;13.27;72.90;101438.94;5031732;28;20041;-34
2021/11/07 10:56:42;;;;;;;21.02;3.63;;;;;;;13.29;71.91;101458.25;5032770;28;20060;-35
2021/11/07 10:59:15;;;;;;;12.60;2.67;;;;;;;13.21;71.59;101456.09;5032147;28;20057;-34
2021/11/07 11:01:44;;;;;;;;;;;;;;;12.94;69.56;101462.34;5021767;28;20521;-33
2021/11/07 11:04:13;;;;;;;18.23;3.05;;;;;;;12.77;72.73;101465.66;5031905;28;19928;-33
2021/11/07 11:06:54;;;;;;;14.10;3.13;;;;;;;12.63;73.12;101471.13;5032352;28;20407;-32
2021/11/07 11:09:22;;;;;;;12.85;2.38;;;;;;;12.47;73.40;101454.81;5031549;28;20045;-33
2021/11/07 11:11:54;;;;;;;12.13;2.33;;;;;;;12.38;73.86;101451.84;5031743;28;20045;-36
2021/11/07 11:14:25;;;;;;;16.00;2.58;;;;;;;12.34;74.15;101454.41;5031772;28;20064;-33
2021/11/07 11:16:58;;;;;;;16.45;2.83;;;;;;;12.28;75.09;101449.97;5031751;28;20048;-33
2021/11/07 11:22:34;;;;;;;19.92;3.22;;;;;;;12.22;75.17;101447.50;5017339;28;20053;-32
2021/11/07 11:31:10;;;;;;;20.70;4.32;;;;;;;12.16;75.87;101455.16;5028109;28;20041;-33
2021/11/07 11:33:39;;;;;;;19.80;3.13;;;;;;;12.23;75.82;101457.59;5031772;28;20064;-33
2021/11/07 11:36:19;;;;;;;22.50;3.80;;;;;;;12.33;75.81;101455.53;5030933;28;20049;-32
2021/11/07 11:38:54;;;;;;;17.88;3.22;;;;;;;12.37;74.70;101453.81;5031687;28;21281;-32
2021/11/07 11:41:26;;;;;;;19.42;3.70;;;;;;;12.39;75.17;101450.69;5031643;28;20045;-30
2021/11/07 11:43:55;;;;;;;23.55;3.70;;;;;;;12.36;74.77;101454.94;5030947;28;20050;-30
2021/11/07 11:46:37;;;;;;;18.17;2.90;;;;;;;12.33;75.06;101454.69;5031395;28;20060;-30
2021/11/07 11:52:14;;;;;;;17.40;3.63;;;;;;;12.20;75.74;101463.75;5024456;28;20052;-32
2021/11/07 11:55:14;;;;;;;20.42;3.63;;;;;;;12.18;76.23;101461.28;5031054;28;20280;-31
2021/11/07 11:57:54;;;;;;;15.95;2.85;;;;;;;12.15;76.12;101461.03;5030858;28;20049;-32
2021/11/07 12:00:33;;;;;;;18.70;3.17;;;;;;;12.14;76.02;101456.56;5031209;28;20129;-31
2021/11/07 12:03:08;;;;;;;18.38;3.35;;;;;;;12.13;74.72;101454.91;5031362;28;20113;-35
2021/11/07 12:05:41;;;;;;;16.45;3.20;;;;;;;12.12;74.43;101464.44;5031140;28;20052;-33
2021/11/07 12:08:22;;;;;;;19.27;3.92;;;;;;;12.19;74.81;101454.53;5031451;28;20494;-32
2021/11/07 12:11:12;;;;;;;19.13;3.08;;;;;;;12.31;74.21;101462.53;5031071;28;20503;-32
2021/11/07 12:13:45;;;;;;;21.92;3.30;;;;;;;12.45;73.99;101465.47;5031246;28;20037;-36
2021/11/07 12:16:17;;;;;;;18.40;3.03;;;;;;;12.47;72.67;101458.44;5031229;28;20052;-35
2021/11/07 12:19:03;;;;;;;21.50;3.65;;;;;;;12.44;72.89;101461.81;5030625;28;20045;-33
2021/11/07 12:21:55;;;;;;;16.25;3.55;;;;;;;12.40;73.00;101466.34;5030682;28;20495;-34
2021/11/07 12:24:24;;;;;;;;;;;;;;;12.27;71.71;101465.09;5012256;28;20042;-34
2021/11/07 12:27:14;;;;;;;20.88;3.88;;;;;;;12.20;73.00;101460.97;5026375;28;19921;-33
2021/11/07 12:29:43;;;;;;;18.80;3.30;;;;;;;12.15;72.40;101461.03;5020930;28;20053;-33
2021/11/07 12:32:12;;;;;;;21.60;3.20;;;;;;;12.11;72.54;101454.38;5030219;28;20054;-31